createdAt,value
2022-08-26T00:00:10.123Z,0
2022-08-26T00:01:11.658Z,0
2022-08-26T00:02:11.394Z,0
2022-08-26T00:03:14.542Z,0
2022-08-26T00:04:12.074Z,0
2022-08-26T00:05:13.221Z,0
2022-08-26T00:06:20.823Z,0
2022-08-26T00:07:15.965Z,0
2022-08-26T00:08:18.723Z,0
2022-08-26T00:09:22.072Z,0
2022-08-26T00:10:16.916Z,0
2022-08-26T00:11:26.498Z,0
2022-08-26T00:12:18.252Z,0
2022-08-26T00:13:20.164Z,0
2022-08-26T00:14:19.597Z,0
2022-08-26T00:15:18.586Z,0
2022-08-26T00:16:18.533Z,0
2022-08-26T00:17:21.126Z,0
2022-08-26T00:18:43.956Z,0
2022-08-26T00:19:22.452Z,0
2022-08-26T00:20:22.425Z,0
2022-08-26T00:21:22.959Z,0
2022-08-26T00:22:27.637Z,0
2022-08-26T00:23:25.271Z,0
2022-08-26T00:24:24.135Z,0
2022-08-26T00:25:27.916Z,0
2022-08-26T00:26:28.557Z,0
2022-08-26T00:27:28.158Z,0
2022-08-26T00:28:30.493Z,0
2022-08-26T00:29:28.727Z,0
2022-08-26T00:30:33.949Z,0
2022-08-26T00:31:31.077Z,0
2022-08-26T00:32:32.016Z,0
2022-08-26T00:33:30.939Z,0
2022-08-26T00:34:30.679Z,0
2022-08-26T00:35:33.671Z,0
2022-08-26T00:36:35.251Z,0
2022-08-26T00:37:35.945Z,0
2022-08-26T00:38:35.039Z,0
2022-08-26T00:39:34.056Z,0
2022-08-26T00:40:34.561Z,0
2022-08-26T00:41:34.317Z,0
2022-08-26T00:42:37.317Z,0
2022-08-26T00:43:53.450Z,0
2022-08-26T00:44:36.706Z,0
2022-08-26T00:45:37.332Z,0
2022-08-26T00:46:37.938Z,0
2022-08-26T00:47:43.388Z,0
2022-08-26T00:48:43.439Z,0
2022-08-26T00:49:40.944Z,0
2022-08-26T00:50:39.301Z,0
2022-08-26T00:51:41.457Z,0
2022-08-26T00:52:40.423Z,0
2022-08-26T00:53:41.433Z,0
2022-08-26T00:54:42.343Z,0
2022-08-26T00:55:49.876Z,0
2022-08-26T00:56:43.098Z,0
2022-08-26T00:57:43.391Z,0
2022-08-26T00:58:46.274Z,0
2022-08-26T00:59:45.192Z,0
2022-08-26T01:00:46.054Z,0
2022-08-26T01:01:46.265Z,0
2022-08-26T01:02:52.684Z,0
2022-08-26T01:03:47.125Z,0
2022-08-26T01:04:54.223Z,0
2022-08-26T01:05:47.830Z,0
2022-08-26T01:06:50.051Z,0
2022-08-26T01:07:48.674Z,0
2022-08-26T01:08:50.328Z,0
2022-08-26T01:09:50.944Z,0
2022-08-26T01:10:50.956Z,0
2022-08-26T01:11:51.293Z,0
2022-08-26T01:12:52.205Z,0
2022-08-26T01:13:52.105Z,0
2022-08-26T01:14:58.028Z,0
2022-08-26T01:15:53.892Z,0
2022-08-26T01:16:55.742Z,0
2022-08-26T01:17:55.291Z,0
2022-08-26T01:18:55.671Z,0
2022-08-26T01:19:57.616Z,0
2022-08-26T01:20:57.518Z,0
2022-08-26T01:21:56.731Z,0
2022-08-26T01:22:58.792Z,0
2022-08-26T01:24:03.391Z,0
2022-08-26T01:24:59.827Z,0
2022-08-26T01:26:01.434Z,0
2022-08-26T01:27:00.851Z,0
2022-08-26T01:28:03.190Z,0
2022-08-26T01:29:03.165Z,0
2022-08-26T01:30:01.475Z,0
2022-08-26T01:31:01.793Z,0
2022-08-26T01:32:02.491Z,0
2022-08-26T01:33:02.943Z,0
2022-08-26T01:34:03.581Z,0
2022-08-26T01:35:02.790Z,0
2022-08-26T01:36:05.101Z,0
2022-08-26T01:37:04.326Z,0
2022-08-26T01:38:05.064Z,0
2022-08-26T01:39:07.166Z,0
2022-08-26T01:40:06.057Z,0
2022-08-26T01:41:16.450Z,0
2022-08-26T01:42:10.245Z,0
2022-08-26T01:43:08.662Z,0
2022-08-26T01:44:09.761Z,0
2022-08-26T01:45:09.924Z,0
2022-08-26T01:46:10.389Z,0
2022-08-26T01:47:12.079Z,0
2022-08-26T01:48:11.538Z,0
2022-08-26T01:49:13.233Z,0
2022-08-26T01:50:15.784Z,0
2022-08-26T01:51:12.259Z,0
2022-08-26T01:52:18.339Z,0
2022-08-26T01:53:15.866Z,0
2022-08-26T01:54:20.514Z,0
2022-08-26T01:55:32.017Z,0
2022-08-26T01:56:17.007Z,0
2022-08-26T01:57:16.839Z,0
2022-08-26T01:58:18.549Z,0
2022-08-26T01:59:22.501Z,0
2022-08-26T02:00:21.634Z,0
2022-08-26T02:01:21.065Z,0
2022-08-26T02:02:21.205Z,0
2022-08-26T02:03:20.496Z,0
2022-08-26T02:04:21.556Z,0
2022-08-26T02:05:22.173Z,0
2022-08-26T02:06:25.240Z,0
2022-08-26T02:07:27.102Z,0
2022-08-26T02:08:31.388Z,0
2022-08-26T02:09:25.989Z,0
2022-08-26T02:10:26.729Z,0
2022-08-26T02:11:31.054Z,0
2022-08-26T02:12:25.722Z,0
2022-08-26T02:13:29.755Z,0
2022-08-26T02:14:32.276Z,0
2022-08-26T02:15:32.555Z,0
2022-08-26T02:16:30.800Z,0
2022-08-26T02:17:33.178Z,0
2022-08-26T02:18:31.164Z,0
2022-08-26T02:19:32.557Z,0
2022-08-26T02:20:32.784Z,0
2022-08-26T02:21:31.703Z,0
2022-08-26T02:22:32.820Z,0
2022-08-26T02:23:35.508Z,0
2022-08-26T02:24:34.567Z,0
2022-08-26T02:25:34.175Z,0
2022-08-26T02:26:38.047Z,0
2022-08-26T02:27:38.195Z,0
2022-08-26T02:28:38.247Z,0
2022-08-26T02:29:39.298Z,0
2022-08-26T02:30:39.901Z,0
2022-08-26T02:31:40.524Z,0
2022-08-26T02:32:41.323Z,0
2022-08-26T02:33:42.997Z,0
2022-08-26T02:34:42.984Z,0
2022-08-26T02:35:42.920Z,0
2022-08-26T02:36:45.449Z,0
2022-08-26T02:37:47.538Z,0
2022-08-26T02:38:48.188Z,0
2022-08-26T02:39:44.619Z,0
2022-08-26T02:40:47.191Z,0
2022-08-26T02:41:51.266Z,0
2022-08-26T02:42:48.380Z,0
2022-08-26T02:43:47.256Z,0
2022-08-26T02:44:47.185Z,0
2022-08-26T02:45:48.757Z,0
2022-08-26T02:46:53.118Z,0
2022-08-26T02:47:49.272Z,0
2022-08-26T02:48:50.057Z,0
2022-08-26T02:49:52.878Z,0
2022-08-26T02:50:51.083Z,0
2022-08-26T02:51:51.450Z,0
2022-08-26T02:52:51.886Z,0
2022-08-26T02:53:54.056Z,0
2022-08-26T02:54:55.268Z,0
2022-08-26T02:55:55.297Z,0
2022-08-26T02:56:55.172Z,0
2022-08-26T02:57:57.156Z,0
2022-08-26T02:58:56.416Z,0
2022-08-26T02:59:57.314Z,0
2022-08-26T03:01:04.736Z,0
2022-08-26T03:02:01.811Z,0
2022-08-26T03:03:00.287Z,0
2022-08-26T03:04:00.880Z,0
2022-08-26T03:05:12.036Z,0
2022-08-26T03:06:00.891Z,0
2022-08-26T03:07:04.265Z,0
2022-08-26T03:08:01.853Z,0
2022-08-26T03:09:03.826Z,0
2022-08-26T03:10:06.991Z,0
2022-08-26T03:11:07.278Z,0
2022-08-26T03:12:05.826Z,0
2022-08-26T03:13:11.292Z,0
2022-08-26T03:14:08.805Z,0
2022-08-26T03:15:15.984Z,0
2022-08-26T03:16:07.773Z,0
2022-08-26T03:17:09.548Z,0
2022-08-26T03:18:08.701Z,0
2022-08-26T03:19:11.379Z,0
2022-08-26T03:20:11.309Z,0
2022-08-26T03:21:12.049Z,0
2022-08-26T03:22:11.498Z,0
2022-08-26T03:23:16.156Z,0
2022-08-26T03:24:14.234Z,0
2022-08-26T03:25:14.256Z,0
2022-08-26T03:26:16.659Z,0
2022-08-26T03:27:20.050Z,0
2022-08-26T03:28:15.803Z,0
2022-08-26T03:29:15.968Z,0
2022-08-26T03:30:17.832Z,0
2022-08-26T03:31:18.581Z,0
2022-08-26T03:32:17.374Z,0
2022-08-26T03:33:17.767Z,0
2022-08-26T03:34:18.160Z,0
2022-08-26T03:35:19.353Z,0
2022-08-26T03:36:19.878Z,0
2022-08-26T03:37:19.439Z,0
2022-08-26T03:38:20.911Z,0
2022-08-26T03:39:21.854Z,0
2022-08-26T03:40:26.144Z,0
2022-08-26T03:41:22.705Z,0
2022-08-26T03:42:26.882Z,0
2022-08-26T03:43:24.220Z,0
2022-08-26T03:44:24.647Z,0
2022-08-26T03:45:26.101Z,0
2022-08-26T03:46:26.741Z,0
2022-08-26T03:47:26.161Z,0
2022-08-26T03:48:26.063Z,0
2022-08-26T03:49:26.141Z,0
2022-08-26T03:50:29.763Z,0
2022-08-26T03:51:30.419Z,0
2022-08-26T03:52:28.659Z,0
2022-08-26T03:53:31.650Z,0
2022-08-26T03:54:29.916Z,0
2022-08-26T03:55:35.228Z,0
2022-08-26T03:56:31.942Z,0
2022-08-26T03:57:33.889Z,0
2022-08-26T03:58:32.133Z,0
2022-08-26T03:59:33.684Z,0
2022-08-26T04:00:32.915Z,0
2022-08-26T04:01:36.471Z,0
2022-08-26T04:02:34.631Z,0
2022-08-26T04:03:35.485Z,4
2022-08-26T04:04:36.106Z,4
2022-08-26T04:05:36.005Z,0
2022-08-26T04:06:37.288Z,0
2022-08-26T04:07:38.645Z,0
2022-08-26T04:08:39.204Z,4
2022-08-26T04:09:40.895Z,4
2022-08-26T04:10:40.266Z,4
2022-08-26T04:11:44.719Z,0
2022-08-26T04:12:40.828Z,4
2022-08-26T04:13:40.749Z,4
2022-08-26T04:14:44.742Z,4
2022-08-26T04:15:42.790Z,4
2022-08-26T04:16:44.816Z,4
2022-08-26T04:17:43.630Z,8
2022-08-26T04:18:52.401Z,8
2022-08-26T04:19:45.322Z,8
2022-08-26T04:20:46.635Z,12
2022-08-26T04:21:46.670Z,12
2022-08-26T04:22:47.267Z,16
2022-08-26T04:23:59.042Z,20
2022-08-26T04:24:48.928Z,20
2022-08-26T04:25:51.909Z,24
2022-08-26T04:26:53.685Z,24
2022-08-26T04:27:55.929Z,28
2022-08-26T04:28:51.268Z,28
2022-08-26T04:29:57.895Z,32
2022-08-26T04:30:56.412Z,40
2022-08-26T04:31:55.392Z,40
2022-08-26T04:32:53.670Z,44
2022-08-26T04:33:56.138Z,48
2022-08-26T04:34:56.490Z,52
2022-08-26T04:35:59.357Z,56
2022-08-26T04:36:57.605Z,60
2022-08-26T04:37:57.663Z,64
2022-08-26T04:38:59.674Z,64
2022-08-26T04:39:59.610Z,68
2022-08-26T04:41:02.912Z,68
2022-08-26T04:42:03.636Z,72
2022-08-26T04:43:02.883Z,72
2022-08-26T04:44:03.116Z,72
2022-08-26T04:45:02.331Z,76
2022-08-26T04:46:03.142Z,76
2022-08-26T04:47:04.478Z,80
2022-08-26T04:48:04.495Z,80
2022-08-26T04:49:04.883Z,80
2022-08-26T04:50:07.710Z,84
2022-08-26T04:51:07.065Z,84
2022-08-26T04:52:08.447Z,88
2022-08-26T04:53:12.610Z,96
2022-08-26T04:54:10.296Z,108
2022-08-26T04:55:14.007Z,116
2022-08-26T04:56:10.541Z,124
2022-08-26T04:57:10.564Z,128
2022-08-26T04:58:11.884Z,128
2022-08-26T04:59:21.847Z,132
2022-08-26T05:00:12.979Z,136
2022-08-26T05:01:13.165Z,144
2022-08-26T05:02:15.163Z,152
2022-08-26T05:03:16.292Z,156
2022-08-26T05:04:24.163Z,164
2022-08-26T05:05:15.427Z,168
2022-08-26T05:06:18.945Z,172
2022-08-26T05:07:17.591Z,180
2022-08-26T05:08:17.862Z,188
2022-08-26T05:09:21.100Z,192
2022-08-26T05:10:20.502Z,196
2022-08-26T05:11:20.593Z,208
2022-08-26T05:12:22.106Z,212
2022-08-26T05:13:25.988Z,220
2022-08-26T05:14:21.738Z,228
2022-08-26T05:15:22.725Z,232
2022-08-26T05:16:23.448Z,240
2022-08-26T05:17:26.437Z,236
2022-08-26T05:18:26.041Z,248
2022-08-26T05:19:33.198Z,256
2022-08-26T05:20:31.432Z,268
2022-08-26T05:21:27.411Z,280
2022-08-26T05:22:31.361Z,292
2022-08-26T05:23:28.768Z,308
2022-08-26T05:24:28.789Z,320
2022-08-26T05:25:33.324Z,328
2022-08-26T05:26:34.734Z,332
2022-08-26T05:27:31.173Z,336
2022-08-26T05:28:32.569Z,348
2022-08-26T05:29:32.570Z,356
2022-08-26T05:30:32.900Z,360
2022-08-26T05:31:34.238Z,364
2022-08-26T05:32:34.886Z,372
2022-08-26T05:33:34.894Z,376
2022-08-26T05:34:44.196Z,388
2022-08-26T05:35:37.405Z,392
2022-08-26T05:36:37.828Z,396
2022-08-26T05:37:37.265Z,412
2022-08-26T05:38:41.793Z,424
2022-08-26T05:39:37.896Z,432
2022-08-26T05:40:39.354Z,436
2022-08-26T05:41:46.014Z,444
2022-08-26T05:42:41.194Z,448
2022-08-26T05:43:41.314Z,476
2022-08-26T05:45:04.363Z,516
2022-08-26T05:45:44.937Z,528
2022-08-26T05:46:41.698Z,536
2022-08-26T05:47:42.232Z,548
2022-08-26T05:48:44.166Z,548
2022-08-26T05:49:56.886Z,568
2022-08-26T05:50:43.652Z,560
2022-08-26T05:51:44.501Z,552
2022-08-26T05:52:45.420Z,548
2022-08-26T05:54:00.235Z,452
2022-08-26T05:54:46.864Z,444
2022-08-26T05:55:50.501Z,544
2022-08-26T05:56:51.480Z,532
2022-08-26T05:57:53.959Z,472
2022-08-26T05:58:51.882Z,492
2022-08-26T05:59:51.313Z,516
2022-08-26T06:00:53.082Z,536
2022-08-26T06:01:50.949Z,556
2022-08-26T06:02:54.421Z,600
2022-08-26T06:03:54.034Z,740
2022-08-26T06:04:53.968Z,748
2022-08-26T06:05:52.738Z,748
2022-08-26T06:06:56.626Z,752
2022-08-26T06:07:53.811Z,752
2022-08-26T06:08:55.644Z,768
2022-08-26T06:10:15.314Z,796
2022-08-26T06:10:57.641Z,808
2022-08-26T06:11:59.102Z,816
2022-08-26T06:12:57.344Z,836
2022-08-26T06:14:03.240Z,836
2022-08-26T06:15:00.366Z,852
2022-08-26T06:15:59.706Z,868
2022-08-26T06:16:59.705Z,888
2022-08-26T06:17:59.946Z,904
2022-08-26T06:19:00.648Z,920
2022-08-26T06:20:01.574Z,940
2022-08-26T06:21:09.298Z,968
2022-08-26T06:22:06.483Z,984
2022-08-26T06:23:02.723Z,1012
2022-08-26T06:24:04.403Z,1024
2022-08-26T06:25:03.389Z,1044
2022-08-26T06:26:04.035Z,1064
2022-08-26T06:27:04.771Z,1080
2022-08-26T06:28:07.214Z,1096
2022-08-26T06:29:09.633Z,1108
2022-08-26T06:30:05.893Z,1116
2022-08-26T06:31:07.205Z,1128
2022-08-26T06:32:08.669Z,1140
2022-08-26T06:33:10.877Z,1004
2022-08-26T06:34:16.360Z,928
2022-08-26T06:35:12.047Z,936
2022-08-26T06:36:10.617Z,992
2022-08-26T06:37:13.010Z,1000
2022-08-26T06:38:12.008Z,996
2022-08-26T06:39:12.363Z,1004
2022-08-26T06:40:17.439Z,1052
2022-08-26T06:41:13.945Z,1088
2022-08-26T06:42:18.509Z,1136
2022-08-26T06:43:15.493Z,1236
2022-08-26T06:44:15.383Z,1376
2022-08-26T06:45:17.140Z,1608
2022-08-26T06:46:17.887Z,1400
2022-08-26T06:47:16.196Z,1208
2022-08-26T06:48:19.657Z,1156
2022-08-26T06:49:25.882Z,1180
2022-08-26T06:50:18.318Z,1264
2022-08-26T06:51:18.830Z,1676
2022-08-26T06:52:30.047Z,3884
2022-08-26T06:53:21.467Z,3692
2022-08-26T06:54:21.163Z,3604
2022-08-26T06:55:27.093Z,2696
2022-08-26T06:56:24.151Z,2172
2022-08-26T06:57:22.783Z,2012
2022-08-26T06:58:25.711Z,1852
2022-08-26T06:59:24.280Z,1576
2022-08-26T07:00:25.951Z,1540
2022-08-26T07:01:26.827Z,1444
2022-08-26T07:02:33.612Z,1444
2022-08-26T07:03:26.945Z,1184
2022-08-26T07:06:31.709Z,1356
2022-08-26T07:07:33.236Z,1704
2022-08-26T07:08:31.847Z,2664
2022-08-26T07:09:33.211Z,3356
2022-08-26T07:10:32.706Z,3804
2022-08-26T07:11:36.180Z,4212
2022-08-26T07:12:36.233Z,3824
2022-08-26T07:13:41.577Z,3504
2022-08-26T07:14:35.989Z,2964
2022-08-26T07:15:42.984Z,3156
2022-08-26T07:16:38.360Z,2964
2022-08-26T07:17:39.733Z,2588
2022-08-26T07:18:40.259Z,2112
2022-08-26T07:19:43.337Z,1976
2022-08-26T07:20:40.728Z,1920
2022-08-26T07:22:41.874Z,1888
2022-08-26T07:23:41.450Z,1948
2022-08-26T07:25:44.422Z,2048
2022-08-26T07:26:43.633Z,2136
2022-08-26T07:27:44.504Z,2136
2022-08-26T07:28:44.863Z,2096
2022-08-26T07:29:44.897Z,1984
2022-08-26T07:30:47.255Z,1808
2022-08-26T07:31:54.338Z,1680
2022-08-26T07:32:47.908Z,1728
2022-08-26T07:33:48.077Z,1860
2022-08-26T07:34:48.693Z,1868
2022-08-26T07:35:48.778Z,1812
2022-08-26T07:36:51.202Z,1872
2022-08-26T07:37:52.820Z,1912
2022-08-26T07:38:50.909Z,1888
2022-08-26T07:39:52.891Z,1860
2022-08-26T07:40:51.644Z,1868
2022-08-26T07:41:55.001Z,1816
2022-08-26T07:42:54.217Z,1828
2022-08-26T07:43:55.066Z,1840
2022-08-26T07:44:54.576Z,1756
2022-08-26T07:45:54.993Z,1768
2022-08-26T07:46:59.617Z,1764
2022-08-26T07:48:09.959Z,1832
2022-08-26T07:49:08.006Z,1740
2022-08-26T07:50:08.125Z,1728
2022-08-26T07:51:09.001Z,1728
2022-08-26T07:52:09.788Z,1720
2022-08-26T07:53:16.424Z,1636
2022-08-26T07:54:11.251Z,1580
2022-08-26T07:55:11.255Z,1524
2022-08-26T07:56:11.243Z,1540
2022-08-26T08:00:16.547Z,1376
2022-08-26T08:01:19.646Z,1340
2022-08-26T08:02:17.232Z,1396
2022-08-26T08:03:20.656Z,1400
2022-08-26T08:04:25.640Z,1440
2022-08-26T08:05:22.707Z,1468
2022-08-26T08:06:20.617Z,1468
2022-08-26T08:07:25.929Z,1596
2022-08-26T08:08:39.883Z,1732
2022-08-26T08:09:23.291Z,1816
2022-08-26T08:10:26.002Z,1952
2022-08-26T08:11:24.208Z,2068
2022-08-26T08:12:25.456Z,2288
2022-08-26T08:13:26.093Z,2460
2022-08-26T08:14:29.012Z,2440
2022-08-26T08:15:28.510Z,2256
2022-08-26T08:16:32.177Z,2016
2022-08-26T08:17:28.356Z,1948
2022-08-26T08:18:29.611Z,1948
2022-08-26T08:19:41.669Z,1972
2022-08-26T08:20:31.530Z,1972
2022-08-26T08:21:35.903Z,1940
2022-08-26T08:22:38.606Z,1900
2022-08-26T08:23:38.352Z,1868
2022-08-26T08:24:37.782Z,1856
2022-08-26T08:25:39.217Z,1852
2022-08-26T08:26:39.697Z,1872
2022-08-26T08:27:41.597Z,1892
2022-08-26T08:28:41.572Z,1920
2022-08-26T08:29:41.826Z,1968
2022-08-26T08:30:46.041Z,2008
2022-08-26T08:32:11.413Z,2032
2022-08-26T08:33:09.212Z,2036
2022-08-26T08:34:10.161Z,2020
2022-08-26T08:35:17.533Z,2008
2022-08-26T08:36:10.231Z,2008
2022-08-26T08:37:16.391Z,2004
2022-08-26T08:38:17.336Z,2008
2022-08-26T08:39:12.503Z,2012
2022-08-26T08:40:13.001Z,2012
2022-08-26T08:41:17.334Z,2028
2022-08-26T08:42:16.006Z,2068
2022-08-26T08:43:15.937Z,2144
2022-08-26T08:44:15.538Z,2192
2022-08-26T08:45:15.413Z,2232
2022-08-26T08:46:16.946Z,2260
2022-08-26T08:47:17.365Z,2276
2022-08-26T08:48:19.692Z,2296
2022-08-26T08:49:20.086Z,2280
2022-08-26T08:50:18.648Z,2260
2022-08-26T08:51:20.721Z,2252
2022-08-26T08:52:25.045Z,2252
2022-08-26T08:53:21.274Z,2280
2022-08-26T08:54:22.183Z,2324
2022-08-26T08:55:26.271Z,2340
2022-08-26T08:56:24.292Z,2408
2022-08-26T08:57:24.527Z,2536
2022-08-26T08:58:26.284Z,2548
2022-08-26T08:59:26.897Z,2608
2022-08-26T09:00:39.637Z,2548
2022-08-26T09:01:27.583Z,2512
2022-08-26T09:02:27.996Z,2472
2022-08-26T09:03:27.669Z,2820
2022-08-26T09:04:30.422Z,3712
2022-08-26T09:05:30.553Z,5740
2022-08-26T09:06:34.530Z,8156
2022-08-26T09:07:32.232Z,9008
2022-08-26T09:08:32.050Z,10324
2022-08-26T09:09:33.042Z,10684
2022-08-26T09:10:34.391Z,11584
2022-08-26T09:11:34.219Z,11332
2022-08-26T09:12:40.315Z,9984
2022-08-26T09:13:37.523Z,9852
2022-08-26T09:14:37.687Z,9092
2022-08-26T09:15:40.095Z,8812
2022-08-26T09:16:36.060Z,7584
2022-08-26T09:17:36.458Z,6132
2022-08-26T09:18:36.321Z,9416
2022-08-26T09:19:38.096Z,8288
2022-08-26T09:20:38.204Z,9212
2022-08-26T09:21:38.209Z,12372
2022-08-26T09:22:40.010Z,8920
2022-08-26T09:23:41.983Z,9580
2022-08-26T09:24:54.336Z,7284
2022-08-26T09:25:45.666Z,7824
2022-08-26T09:26:42.782Z,9496
2022-08-26T09:27:44.048Z,10064
2022-08-26T09:28:44.738Z,8112
2022-08-26T09:29:43.716Z,11272
2022-08-26T09:30:44.601Z,13100
2022-08-26T09:31:46.145Z,12736
2022-08-26T09:32:55.856Z,12816
2022-08-26T09:33:46.694Z,12864
2022-08-26T09:34:46.918Z,12712
2022-08-26T09:35:48.701Z,12824
2022-08-26T09:36:52.601Z,12468
2022-08-26T09:38:51.300Z,12932
2022-08-26T09:39:50.121Z,12004
2022-08-26T09:40:50.822Z,11088
2022-08-26T09:41:50.620Z,12424
2022-08-26T09:42:54.039Z,12272
2022-08-26T09:43:52.392Z,13236
2022-08-26T09:44:51.729Z,13124
2022-08-26T09:46:05.111Z,13196
2022-08-26T09:46:53.705Z,13056
2022-08-26T09:47:53.581Z,12780
2022-08-26T09:49:01.666Z,12752
2022-08-26T09:49:56.117Z,12760
2022-08-26T09:50:57.419Z,12744
2022-08-26T09:52:01.916Z,12780
2022-08-26T09:52:56.258Z,12796
2022-08-26T09:53:57.724Z,12852
2022-08-26T09:55:00.731Z,10548
2022-08-26T09:56:00.450Z,6204
2022-08-26T09:56:59.656Z,7620
2022-08-26T09:58:07.809Z,8904
2022-08-26T09:59:01.692Z,6840
2022-08-26T10:00:02.661Z,7164
2022-08-26T10:01:01.885Z,6176
2022-08-26T10:02:04.657Z,7408
2022-08-26T10:03:04.850Z,10384
2022-08-26T10:04:04.049Z,9380
2022-08-26T10:05:14.912Z,9328
2022-08-26T10:06:04.479Z,8096
2022-08-26T10:07:04.096Z,10280
2022-08-26T10:08:05.619Z,6596
2022-08-26T10:09:13.438Z,7764
2022-08-26T10:10:07.046Z,9672
2022-08-26T10:11:06.701Z,12508
2022-08-26T10:12:09.553Z,12380
2022-08-26T10:13:08.599Z,12516
2022-08-26T10:14:09.452Z,12412
2022-08-26T10:15:09.642Z,12308
2022-08-26T10:16:15.929Z,12340
2022-08-26T10:17:12.673Z,12272
2022-08-26T10:18:14.732Z,12212
2022-08-26T10:19:13.137Z,12196
2022-08-26T10:20:29.352Z,12244
2022-08-26T10:21:14.946Z,12264
2022-08-26T10:22:15.993Z,12260
2022-08-26T10:23:16.356Z,12156
2022-08-26T10:24:16.875Z,12100
2022-08-26T10:25:16.503Z,11984
2022-08-26T10:26:18.384Z,12008
2022-08-26T10:27:19.197Z,11948
2022-08-26T10:28:18.368Z,11948
2022-08-26T10:29:18.295Z,12004
2022-08-26T10:30:22.620Z,12140
2022-08-26T10:31:21.493Z,12152
2022-08-26T10:32:25.547Z,12180
2022-08-26T10:33:20.521Z,12320
2022-08-26T10:34:26.705Z,12508
2022-08-26T10:35:22.015Z,12576
2022-08-26T10:36:26.441Z,12612
2022-08-26T10:37:26.699Z,12596
2022-08-26T10:38:25.402Z,12588
2022-08-26T10:39:25.827Z,12452
2022-08-26T10:40:27.273Z,12396
2022-08-26T10:41:28.113Z,12288
2022-08-26T10:42:28.832Z,12264
2022-08-26T10:43:30.989Z,12316
2022-08-26T10:44:28.548Z,12308
2022-08-26T10:45:30.222Z,12308
2022-08-26T10:46:32.835Z,12352
2022-08-26T10:47:30.070Z,12424
2022-08-26T10:48:41.270Z,12328
2022-08-26T10:49:34.217Z,12260
2022-08-26T10:50:34.311Z,12200
2022-08-26T10:51:35.400Z,11768
2022-08-26T10:52:40.913Z,11596
2022-08-26T10:53:51.348Z,11448
2022-08-26T10:54:39.837Z,11684
2022-08-26T10:55:40.655Z,11672
2022-08-26T10:56:41.206Z,11512
2022-08-26T10:57:41.478Z,11728
2022-08-26T10:58:41.549Z,11860
2022-08-26T10:59:42.592Z,11844
2022-08-26T11:00:44.694Z,11948
2022-08-26T11:01:46.896Z,12020
2022-08-26T11:02:46.883Z,10872
2022-08-26T11:03:45.479Z,11752
2022-08-26T11:04:53.692Z,11768
2022-08-26T11:05:46.237Z,11704
2022-08-26T11:06:48.340Z,11500
2022-08-26T11:07:48.103Z,11228
2022-08-26T11:08:50.532Z,11104
2022-08-26T11:09:50.140Z,11188
2022-08-26T11:10:50.833Z,11264
2022-08-26T11:11:51.979Z,11232
2022-08-26T11:12:54.588Z,11172
2022-08-26T11:13:54.936Z,11088
2022-08-26T11:15:05.398Z,10944
2022-08-26T11:15:53.105Z,10972
2022-08-26T11:16:54.997Z,11040
2022-08-26T11:17:54.797Z,10920
2022-08-26T11:18:57.281Z,10556
2022-08-26T11:20:19.830Z,10152
2022-08-26T11:20:57.107Z,10004
2022-08-26T11:21:58.541Z,9808
2022-08-26T11:22:59.692Z,9708
2022-08-26T11:24:01.726Z,9816
2022-08-26T11:24:58.751Z,9716
2022-08-26T11:25:59.722Z,9828
2022-08-26T11:27:09.204Z,9744
2022-08-26T11:28:00.920Z,9828
2022-08-26T11:29:01.081Z,9688
2022-08-26T11:30:04.799Z,9568
2022-08-26T11:31:11.140Z,9620
2022-08-26T11:32:03.857Z,9548
2022-08-26T11:33:03.242Z,9468
2022-08-26T11:34:05.529Z,9528
2022-08-26T11:35:05.778Z,9416
2022-08-26T11:36:17.801Z,8932
2022-08-26T11:37:05.877Z,9412
2022-08-26T11:38:09.767Z,9496
2022-08-26T11:39:06.346Z,9152
2022-08-26T11:40:09.474Z,9296
2022-08-26T11:41:09.902Z,9092
2022-08-26T11:42:11.534Z,8748
2022-08-26T11:43:10.793Z,9400
2022-08-26T11:44:12.399Z,9320
2022-08-26T11:45:11.095Z,9024
2022-08-26T11:46:10.390Z,8952
2022-08-26T11:47:17.277Z,9008
2022-08-26T11:48:11.176Z,9000
2022-08-26T11:49:11.928Z,8940
2022-08-26T11:50:11.662Z,8708
2022-08-26T11:51:14.471Z,8108
2022-08-26T11:52:14.293Z,8628
2022-08-26T11:53:14.627Z,8680
2022-08-26T11:54:16.013Z,8728
2022-08-26T11:55:15.701Z,2416
2022-08-26T11:56:17.705Z,8636
2022-08-26T11:57:22.966Z,8532
2022-08-26T11:58:19.245Z,8524
2022-08-26T11:59:19.678Z,8524
2022-08-26T12:00:33.660Z,8404
2022-08-26T12:01:22.815Z,8436
2022-08-26T12:02:23.581Z,8492
2022-08-26T12:03:24.395Z,8264
2022-08-26T12:04:23.429Z,7296
2022-08-26T12:05:24.180Z,8068
2022-08-26T12:07:30.443Z,7964
2022-08-26T12:08:25.325Z,8124
2022-08-26T12:09:26.259Z,8124
2022-08-26T12:10:34.833Z,8028
2022-08-26T12:11:28.262Z,7932
2022-08-26T12:12:26.706Z,2892
2022-08-26T12:13:31.647Z,8008
2022-08-26T12:14:29.712Z,3072
2022-08-26T12:15:30.717Z,3300
2022-08-26T12:16:30.776Z,6180
2022-08-26T12:17:33.519Z,7728
2022-08-26T12:18:40.762Z,7820
2022-08-26T12:19:32.609Z,7700
2022-08-26T12:20:31.208Z,1256
2022-08-26T12:21:40.415Z,1160
2022-08-26T12:22:32.688Z,1540
2022-08-26T12:23:32.938Z,7516
2022-08-26T12:24:37.049Z,3568
2022-08-26T12:25:41.797Z,7960
2022-08-26T12:26:34.946Z,8080
2022-08-26T12:27:34.827Z,6816
2022-08-26T12:28:35.346Z,1972
2022-08-26T12:29:38.450Z,3276
2022-08-26T12:30:37.796Z,7804
2022-08-26T12:31:38.291Z,8016
2022-08-26T12:32:51.120Z,4496
2022-08-26T12:33:39.484Z,7764
2022-08-26T12:34:40.065Z,1800
2022-08-26T12:35:40.444Z,3796
2022-08-26T12:36:41.512Z,7468
2022-08-26T12:37:46.286Z,7180
2022-08-26T12:38:42.493Z,7300
2022-08-26T12:39:42.883Z,7192
2022-08-26T12:40:43.956Z,7004
2022-08-26T12:41:44.650Z,6868
2022-08-26T12:42:45.201Z,6932
2022-08-26T12:43:46.447Z,6752
2022-08-26T12:45:00.189Z,6872
2022-08-26T12:45:48.040Z,6948
2022-08-26T12:46:55.349Z,6836
2022-08-26T12:47:54.858Z,7052
2022-08-26T12:48:49.071Z,7032
2022-08-26T12:49:49.708Z,7276
2022-08-26T12:50:50.057Z,7244
2022-08-26T12:51:50.996Z,4148
2022-08-26T12:52:52.206Z,6604
2022-08-26T12:53:52.440Z,2972
2022-08-26T12:54:56.610Z,6224
2022-08-26T12:55:53.086Z,6068
2022-08-26T12:56:57.682Z,2764
2022-08-26T12:57:54.320Z,7172
2022-08-26T12:58:54.973Z,7220
2022-08-26T12:59:54.913Z,7312
2022-08-26T13:00:56.964Z,6384
2022-08-26T13:01:56.388Z,1796
2022-08-26T13:02:56.608Z,6892
2022-08-26T13:03:58.358Z,6888
2022-08-26T13:05:00.659Z,6976
2022-08-26T13:05:59.402Z,7052
2022-08-26T13:06:59.627Z,7024
2022-08-26T13:08:00.560Z,5856
2022-08-26T13:09:00.791Z,1704
2022-08-26T13:10:00.960Z,1388
2022-08-26T13:11:02.175Z,1132
2022-08-26T13:12:03.092Z,1216
2022-08-26T13:13:03.457Z,1516
2022-08-26T13:14:06.848Z,1512
2022-08-26T13:15:04.978Z,1700
2022-08-26T13:16:05.335Z,1556
2022-08-26T13:17:05.353Z,6124
2022-08-26T13:18:08.830Z,7000
2022-08-26T13:19:10.046Z,1456
2022-08-26T13:20:12.401Z,1560
2022-08-26T13:21:08.339Z,1256
2022-08-26T13:22:09.288Z,1172
2022-08-26T13:23:10.974Z,1076
2022-08-26T13:24:11.676Z,1052
2022-08-26T13:25:11.670Z,1220
2022-08-26T13:26:12.554Z,1380
2022-08-26T13:27:13.186Z,6132
2022-08-26T13:28:13.798Z,1652
2022-08-26T13:29:18.129Z,6164
2022-08-26T13:30:18.940Z,1264
2022-08-26T13:31:17.224Z,1024
2022-08-26T13:32:16.882Z,888
2022-08-26T13:33:19.983Z,988
2022-08-26T13:34:17.749Z,828
2022-08-26T13:35:18.749Z,736
2022-08-26T13:36:19.495Z,724
2022-08-26T13:37:19.424Z,788
2022-08-26T13:38:39.666Z,928
2022-08-26T13:39:20.878Z,5176
2022-08-26T13:40:22.185Z,1408
2022-08-26T13:41:35.051Z,5404
2022-08-26T13:42:22.260Z,5328
2022-08-26T13:43:23.196Z,1552
2022-08-26T13:44:24.139Z,5060
2022-08-26T13:45:25.436Z,1468
2022-08-26T13:46:26.122Z,1736
2022-08-26T13:47:26.134Z,1492
2022-08-26T13:48:30.377Z,1552
2022-08-26T13:49:27.655Z,1652
2022-08-26T13:50:27.871Z,1500
2022-08-26T13:51:29.083Z,1532
2022-08-26T13:52:41.438Z,4752
2022-08-26T13:53:29.687Z,4644
2022-08-26T13:54:30.342Z,4600
2022-08-26T13:55:34.738Z,4632
2022-08-26T13:56:31.953Z,4716
2022-08-26T13:57:32.583Z,4456
2022-08-26T13:59:33.878Z,4020
2022-08-26T14:00:34.156Z,4076
2022-08-26T14:01:34.215Z,4264
2022-08-26T14:02:35.436Z,1084
2022-08-26T14:03:35.954Z,1180
2022-08-26T14:04:38.752Z,1560
2022-08-26T14:05:36.811Z,3452